sensor_id;sensor_type;location;lat;lon;timestamp;pressure;altitude;pressure_sealevel;temperature
76541;BMP280;65385;55.772;37.658;2024-02-26T00:00:21;100830.44;;;-0.54
76541;BMP280;65385;55.772;37.658;2024-02-26T00:01:23;100833.94;;;-0.55
76541;BMP280;65385;55.772;37.658;2024-02-26T00:02:23;100833.16;;;-0.56
76541;BMP280;65385;55.772;37.658;2024-02-26T00:03:24;100835.56;;;-0.54
76541;BMP280;65385;55.772;37.658;2024-02-26T00:04:25;100833.94;;;-0.55
76541;BMP280;65385;55.772;37.658;2024-02-26T00:05:25;100831.38;;;-0.55
76541;BMP280;65385;55.772;37.658;2024-02-26T00:06:26;100829.63;;;-0.55
76541;BMP280;65385;55.772;37.658;2024-02-26T00:07:26;100833.16;;;-0.56
76541;BMP280;65385;55.772;37.658;2024-02-26T00:08:27;100831.38;;;-0.55
76541;BMP280;65385;55.772;37.658;2024-02-26T00:09:28;100835.72;;;-0.56
76541;BMP280;65385;55.772;37.658;2024-02-26T00:10:28;100828.16;;;-0.57
76541;BMP280;65385;55.772;37.658;2024-02-26T00:11:29;100825.59;;;-0.57
76541;BMP280;65385;55.772;37.658;2024-02-26T00:12:30;100831.53;;;-0.57
76541;BMP280;65385;55.772;37.658;2024-02-26T00:13:30;100829.09;;;-0.58
76541;BMP280;65385;55.772;37.658;2024-02-26T00:14:31;100833.63;;;-0.60
76541;BMP280;65385;55.772;37.658;2024-02-26T00:15:32;100830.53;;;-0.64
76541;BMP280;65385;55.772;37.658;2024-02-26T00:16:35;100827.81;;;-0.62
76541;BMP280;65385;55.772;37.658;2024-02-26T00:17:36;100830.25;;;-0.61
76541;BMP280;65385;55.772;37.658;2024-02-26T00:18:37;100828.75;;;-0.63
76541;BMP280;65385;55.772;37.658;2024-02-26T00:19:37;100820.41;;;-0.65
76541;BMP280;65385;55.772;37.658;2024-02-26T00:20:38;100820.56;;;-0.67
76541;BMP280;65385;55.772;37.658;2024-02-26T00:21:41;100821.53;;;-0.68
76541;BMP280;65385;55.772;37.658;2024-02-26T00:22:44;100815.59;;;-0.68
76541;BMP280;65385;55.772;37.658;2024-02-26T00:23:45;100818.28;;;-0.70
76541;BMP280;65385;55.772;37.658;2024-02-26T00:24:45;100831.13;;;-0.70
76541;BMP280;65385;55.772;37.658;2024-02-26T00:25:46;100819.25;;;-0.71
76541;BMP280;65385;55.772;37.658;2024-02-26T00:26:47;100813.31;;;-0.71
76541;BMP280;65385;55.772;37.658;2024-02-26T00:27:53;100816.81;;;-0.72
76541;BMP280;65385;55.772;37.658;2024-02-26T00:28:53;100818.44;;;-0.71
76541;BMP280;65385;55.772;37.658;2024-02-26T00:29:54;100828.72;;;-0.71
76541;BMP280;65385;55.772;37.658;2024-02-26T00:30:55;100816.00;;;-0.73
76541;BMP280;65385;55.772;37.658;2024-02-26T00:31:56;100827.28;;;-0.74
76541;BMP280;65385;55.772;37.658;2024-02-26T00:32:57;100817.94;;;-0.75
76541;BMP280;65385;55.772;37.658;2024-02-26T00:33:57;100831.75;;;-0.76
76541;BMP280;65385;55.772;37.658;2024-02-26T00:34:58;100820.00;;;-0.79
76541;BMP280;65385;55.772;37.658;2024-02-26T00:35:58;100825.00;;;-0.77
76541;BMP280;65385;55.772;37.658;2024-02-26T00:36:59;100823.38;;;-0.78
76541;BMP280;65385;55.772;37.658;2024-02-26T00:38:00;100820.81;;;-0.78
76541;BMP280;65385;55.772;37.658;2024-02-26T00:39:02;100824.31;;;-0.79
76541;BMP280;65385;55.772;37.658;2024-02-26T00:40:04;100828.81;;;-0.81
76541;BMP280;65385;55.772;37.658;2024-02-26T00:41:05;100821.94;;;-0.81
76541;BMP280;65385;55.772;37.658;2024-02-26T00:42:05;100815.00;;;-0.80
76541;BMP280;65385;55.772;37.658;2024-02-26T00:43:09;100823.38;;;-0.78
76541;BMP280;65385;55.772;37.658;2024-02-26T00:44:10;100821.75;;;-0.79
76541;BMP280;65385;55.772;37.658;2024-02-26T00:45:10;100815.81;;;-0.80
76541;BMP280;65385;55.772;37.658;2024-02-26T00:46:11;100822.56;;;-0.79
76541;BMP280;65385;55.772;37.658;2024-02-26T00:47:11;100813.09;;;-0.78
76541;BMP280;65385;55.772;37.658;2024-02-26T00:48:12;100824.19;;;-0.78
76541;BMP280;65385;55.772;37.658;2024-02-26T00:49:14;100815.81;;;-0.80
76541;BMP280;65385;55.772;37.658;2024-02-26T00:50:14;100810.69;;;-0.80
76541;BMP280;65385;55.772;37.658;2024-02-26T00:51:15;100815.00;;;-0.80
76541;BMP280;65385;55.772;37.658;2024-02-26T00:52:16;100809.25;;;-0.82
76541;BMP280;65385;55.772;37.658;2024-02-26T00:53:16;100811.00;;;-0.83
76541;BMP280;65385;55.772;37.658;2024-02-26T00:54:17;100806.66;;;-0.82
76541;BMP280;65385;55.772;37.658;2024-02-26T00:55:17;100812.63;;;-0.82
76541;BMP280;65385;55.772;37.658;2024-02-26T00:56:18;100817.09;;;-0.84
76541;BMP280;65385;55.772;37.658;2024-02-26T00:57:19;100820.47;;;-0.83
76541;BMP280;65385;55.772;37.658;2024-02-26T00:58:20;100819.66;;;-0.84
76541;BMP280;65385;55.772;37.658;2024-02-26T00:59:20;100808.56;;;-0.84
76541;BMP280;65385;55.772;37.658;2024-02-26T01:00:21;100805.19;;;-0.85
76541;BMP280;65385;55.772;37.658;2024-02-26T01:01:22;100806.97;;;-0.85
76541;BMP280;65385;55.772;37.658;2024-02-26T01:02:23;100807.91;;;-0.86
76541;BMP280;65385;55.772;37.658;2024-02-26T01:03:23;100810.47;;;-0.86
76541;BMP280;65385;55.772;37.658;2024-02-26T01:04:24;100809.66;;;-0.87
76541;BMP280;65385;55.772;37.658;2024-02-26T01:05:24;100804.53;;;-0.87
76541;BMP280;65385;55.772;37.658;2024-02-26T01:06:25;100806.28;;;-0.87
76541;BMP280;65385;55.772;37.658;2024-02-26T01:07:25;100807.28;;;-0.88
76541;BMP280;65385;55.772;37.658;2024-02-26T01:08:26;100806.47;;;-0.89
76541;BMP280;65385;55.772;37.658;2024-02-26T01:09:27;100811.75;;;-0.90
76541;BMP280;65385;55.772;37.658;2024-02-26T01:10:27;100813.38;;;-0.89
76541;BMP280;65385;55.772;37.658;2024-02-26T01:11:28;100814.31;;;-0.90
76541;BMP280;65385;55.772;37.658;2024-02-26T01:12:29;100809.31;;;-0.92
76541;BMP280;65385;55.772;37.658;2024-02-26T01:13:30;100812.84;;;-0.93
76541;BMP280;65385;55.772;37.658;2024-02-26T01:14:30;100819.72;;;-0.93
76541;BMP280;65385;55.772;37.658;2024-02-26T01:15:31;100811.22;;;-0.94
76541;BMP280;65385;55.772;37.658;2024-02-26T01:16:32;100808.66;;;-0.94
76541;BMP280;65385;55.772;37.658;2024-02-26T01:17:32;100810.59;;;-0.96
76541;BMP280;65385;55.772;37.658;2024-02-26T01:18:33;100808.16;;;-0.97
76541;BMP280;65385;55.772;37.658;2024-02-26T01:19:34;100814.25;;;-0.98
76541;BMP280;65385;55.772;37.658;2024-02-26T01:20:35;100806.56;;;-0.98
76541;BMP280;65385;55.772;37.658;2024-02-26T01:21:35;100809.94;;;-0.98
76541;BMP280;65385;55.772;37.658;2024-02-26T01:22:36;100812.63;;;-0.99
76541;BMP280;65385;55.772;37.658;2024-02-26T01:23:36;100805.88;;;-1.00
76541;BMP280;65385;55.772;37.658;2024-02-26T01:24:37;100811.97;;;-1.01
76541;BMP280;65385;55.772;37.658;2024-02-26T01:25:38;100814.53;;;-1.01
76541;BMP280;65385;55.772;37.658;2024-02-26T01:26:39;100815.53;;;-1.02
76541;BMP280;65385;55.772;37.658;2024-02-26T01:27:39;100801.06;;;-1.03
76541;BMP280;65385;55.772;37.658;2024-02-26T01:28:42;100807.81;;;-1.02
76541;BMP280;65385;55.772;37.658;2024-02-26T01:29:43;100807.66;;;-1.01
76541;BMP280;65385;55.772;37.658;2024-02-26T01:30:45;100808.44;;;-1.00
76541;BMP280;65385;55.772;37.658;2024-02-26T01:31:45;100810.06;;;-0.99
76541;BMP280;65385;55.772;37.658;2024-02-26T01:32:46;100811.69;;;-0.98
76541;BMP280;65385;55.772;37.658;2024-02-26T01:33:46;100815.72;;;-0.96
76541;BMP280;65385;55.772;37.658;2024-02-26T01:34:47;100806.56;;;-0.98
76541;BMP280;65385;55.772;37.658;2024-02-26T01:35:48;100799.81;;;-0.99
76541;BMP280;65385;55.772;37.658;2024-02-26T01:36:48;100800.75;;;-1.00
76541;BMP280;65385;55.772;37.658;2024-02-26T01:37:49;100811.81;;;-1.00
76541;BMP280;65385;55.772;37.658;2024-02-26T01:38:50;100805.88;;;-1.00
76541;BMP280;65385;55.772;37.658;2024-02-26T01:39:50;100804.13;;;-1.00
76541;BMP280;65385;55.772;37.658;2024-02-26T01:40:51;100809.13;;;-0.98
76541;BMP280;65385;55.772;37.658;2024-02-26T01:41:52;100810.72;;;-0.97
76541;BMP280;65385;55.772;37.658;2024-02-26T01:42:52;100803.69;;;-0.95
76541;BMP280;65385;55.772;37.658;2024-02-26T01:43:54;100803.53;;;-0.94
76541;BMP280;65385;55.772;37.658;2024-02-26T01:44:54;100804.34;;;-0.93
76541;BMP280;65385;55.772;37.658;2024-02-26T01:45:55;100801.63;;;-0.92
76541;BMP280;65385;55.772;37.658;2024-02-26T01:46:56;100810.13;;;-0.91
76541;BMP280;65385;55.772;37.658;2024-02-26T01:47:57;100806.63;;;-0.90
76541;BMP280;65385;55.772;37.658;2024-02-26T01:48:57;100808.22;;;-0.89
76541;BMP280;65385;55.772;37.658;2024-02-26T01:49:58;100804.72;;;-0.88
76541;BMP280;65385;55.772;37.658;2024-02-26T01:50:59;100799.41;;;-0.87
76541;BMP280;65385;55.772;37.658;2024-02-26T01:51:59;100805.34;;;-0.86
76541;BMP280;65385;55.772;37.658;2024-02-26T01:53:00;100802.78;;;-0.86
76541;BMP280;65385;55.772;37.658;2024-02-26T01:54:02;100801.81;;;-0.85
76541;BMP280;65385;55.772;37.658;2024-02-26T01:55:04;100799.25;;;-0.85
76541;BMP280;65385;55.772;37.658;2024-02-26T01:56:04;100804.53;;;-0.87
76541;BMP280;65385;55.772;37.658;2024-02-26T01:57:05;100803.59;;;-0.86
76541;BMP280;65385;55.772;37.658;2024-02-26T01:58:06;100801.97;;;-0.87
76541;BMP280;65385;55.772;37.658;2024-02-26T01:59:08;100801.81;;;-0.85
76541;BMP280;65385;55.772;37.658;2024-02-26T02:00:09;100795.88;;;-0.86
76541;BMP280;65385;55.772;37.658;2024-02-26T02:01:10;100793.31;;;-0.86
76541;BMP280;65385;55.772;37.658;2024-02-26T02:02:12;100795.41;;;-0.89
76541;BMP280;65385;55.772;37.658;2024-02-26T02:03:13;100798.78;;;-0.89
76541;BMP280;65385;55.772;37.658;2024-02-26T02:04:14;100801.97;;;-0.87
76541;BMP280;65385;55.772;37.658;2024-02-26T02:05:16;100803.91;;;-0.89
76541;BMP280;65385;55.772;37.658;2024-02-26T02:06:20;100790.25;;;-0.89
76541;BMP280;65385;55.772;37.658;2024-02-26T02:07:21;100787.69;;;-0.89
76541;BMP280;65385;55.772;37.658;2024-02-26T02:08:23;100793.78;;;-0.90
76541;BMP280;65385;55.772;37.658;2024-02-26T02:09:24;100792.97;;;-0.91
76541;BMP280;65385;55.772;37.658;2024-02-26T02:10:26;100797.28;;;-0.91
76541;BMP280;65385;55.772;37.658;2024-02-26T02:11:27;100794.72;;;-0.91
76541;BMP280;65385;55.772;37.658;2024-02-26T02:12:27;100788.66;;;-0.90
76541;BMP280;65385;55.772;37.658;2024-02-26T02:13:28;100791.22;;;-0.90
76541;BMP280;65385;55.772;37.658;2024-02-26T02:14:29;100799.72;;;-0.90
76541;BMP280;65385;55.772;37.658;2024-02-26T02:15:29;100787.84;;;-0.91
76541;BMP280;65385;55.772;37.658;2024-02-26T02:16:30;100784.59;;;-0.93
76541;BMP280;65385;55.772;37.658;2024-02-26T02:17:31;100792.44;;;-0.94
76541;BMP280;65385;55.772;37.658;2024-02-26T02:18:33;100795.00;;;-0.94
76541;BMP280;65385;55.772;37.658;2024-02-26T02:19:33;100791.81;;;-0.96
76541;BMP280;65385;55.772;37.658;2024-02-26T02:20:34;100796.13;;;-0.97
76541;BMP280;65385;55.772;37.658;2024-02-26T02:21:37;100796.28;;;-0.98
76541;BMP280;65385;55.772;37.658;2024-02-26T02:22:37;100791.16;;;-0.98
76541;BMP280;65385;55.772;37.658;2024-02-26T02:23:39;100788.72;;;-1.00
76541;BMP280;65385;55.772;37.658;2024-02-26T02:24:39;100789.53;;;-0.99
76541;BMP280;65385;55.772;37.658;2024-02-26T02:25:40;100785.22;;;-0.99
76541;BMP280;65385;55.772;37.658;2024-02-26T02:26:41;100788.59;;;-0.98
76541;BMP280;65385;55.772;37.658;2024-02-26T02:27:42;100790.34;;;-0.99
76541;BMP280;65385;55.772;37.658;2024-02-26T02:28:43;100782.78;;;-1.00
76541;BMP280;65385;55.772;37.658;2024-02-26T02:29:44;100784.41;;;-0.99
76541;BMP280;65385;55.772;37.658;2024-02-26T02:30:45;100782.78;;;-1.00
76541;BMP280;65385;55.772;37.658;2024-02-26T02:31:46;100781.16;;;-1.01
76541;BMP280;65385;55.772;37.658;2024-02-26T02:32:46;100793.06;;;-1.00
76541;BMP280;65385;55.772;37.658;2024-02-26T02:33:47;100786.31;;;-1.01
76541;BMP280;65385;55.772;37.658;2024-02-26T02:34:48;100786.16;;;-1.00
76541;BMP280;65385;55.772;37.658;2024-02-26T02:35:49;100790.81;;;-1.03
76541;BMP280;65385;55.772;37.658;2024-02-26T02:36:54;100785.66;;;-1.03
76541;BMP280;65385;55.772;37.658;2024-02-26T02:37:57;100783.41;;;-1.06
76541;BMP280;65385;55.772;37.658;2024-02-26T02:38:57;100792.84;;;-1.07
76541;BMP280;65385;55.772;37.658;2024-02-26T02:39:58;100779.34;;;-1.09
76541;BMP280;65385;55.772;37.658;2024-02-26T02:40:59;100782.09;;;-1.10
76541;BMP280;65385;55.772;37.658;2024-02-26T02:41:59;100788.97;;;-1.11
76541;BMP280;65385;55.772;37.658;2024-02-26T02:43:00;100784.81;;;-1.12
76541;BMP280;65385;55.772;37.658;2024-02-26T02:44:03;100779.81;;;-1.13
76541;BMP280;65385;55.772;37.658;2024-02-26T02:45:04;100777.38;;;-1.15
76541;BMP280;65385;55.772;37.658;2024-02-26T02:46:05;100778.34;;;-1.16
76541;BMP280;65385;55.772;37.658;2024-02-26T02:47:05;100782.03;;;-1.19
76541;BMP280;65385;55.772;37.658;2024-02-26T02:48:06;100782.66;;;-1.17
76541;BMP280;65385;55.772;37.658;2024-02-26T02:49:10;100793.72;;;-1.16
76541;BMP280;65385;55.772;37.658;2024-02-26T02:50:11;100782.66;;;-1.17
76541;BMP280;65385;55.772;37.658;2024-02-26T02:51:11;100786.22;;;-1.18
76541;BMP280;65385;55.772;37.658;2024-02-26T02:52:12;100787.03;;;-1.17
76541;BMP280;65385;55.772;37.658;2024-02-26T02:53:13;100780.28;;;-1.18
76541;BMP280;65385;55.772;37.658;2024-02-26T02:54:13;100786.22;;;-1.18
76541;BMP280;65385;55.772;37.658;2024-02-26T02:55:14;100781.06;;;-1.18
76541;BMP280;65385;55.772;37.658;2024-02-26T02:56:14;100779.47;;;-1.19
76541;BMP280;65385;55.772;37.658;2024-02-26T02:57:15;100781.06;;;-1.18
76541;BMP280;65385;55.772;37.658;2024-02-26T02:58:16;100773.38;;;-1.18
76541;BMP280;65385;55.772;37.658;2024-02-26T02:59:16;100782.66;;;-1.17
76541;BMP280;65385;55.772;37.658;2024-02-26T03:00:17;100783.66;;;-1.18
76541;BMP280;65385;55.772;37.658;2024-02-26T03:01:18;100775.94;;;-1.18
76541;BMP280;65385;55.772;37.658;2024-02-26T03:02:18;100780.28;;;-1.18
76541;BMP280;65385;55.772;37.658;2024-02-26T03:03:19;100787.97;;;-1.18
76541;BMP280;65385;55.772;37.658;2024-02-26T03:04:20;100779.31;;;-1.17
76541;BMP280;65385;55.772;37.658;2024-02-26T03:05:20;100781.06;;;-1.18
76541;BMP280;65385;55.772;37.658;2024-02-26T03:06:21;100781.72;;;-1.16
76541;BMP280;65385;55.772;37.658;2024-02-26T03:07:22;100784.28;;;-1.16
76541;BMP280;65385;55.772;37.658;2024-02-26T03:08:22;100779.16;;;-1.16
76541;BMP280;65385;55.772;37.658;2024-02-26T03:09:24;100781.88;;;-1.17
76541;BMP280;65385;55.772;37.658;2024-02-26T03:10:24;100777.53;;;-1.17
76541;BMP280;65385;55.772;37.658;2024-02-26T03:11:25;100778.50;;;-1.18
76541;BMP280;65385;55.772;37.658;2024-02-26T03:12:26;100779.47;;;-1.19
76541;BMP280;65385;55.772;37.658;2024-02-26T03:13:28;100793.25;;;-1.20
76541;BMP280;65385;55.772;37.658;2024-02-26T03:14:28;100788.09;;;-1.20
76541;BMP280;65385;55.772;37.658;2024-02-26T03:15:29;100781.22;;;-1.19
76541;BMP280;65385;55.772;37.658;2024-02-26T03:16:30;100776.22;;;-1.21
76541;BMP280;65385;55.772;37.658;2024-02-26T03:17:30;100774.63;;;-1.22
76541;BMP280;65385;55.772;37.658;2024-02-26T03:18:31;100784.88;;;-1.22
76541;BMP280;65385;55.772;37.658;2024-02-26T03:19:32;100776.38;;;-1.22
76541;BMP280;65385;55.772;37.658;2024-02-26T03:20:32;100768.81;;;-1.24
76541;BMP280;65385;55.772;37.658;2024-02-26T03:21:33;100771.25;;;-1.22
76541;BMP280;65385;55.772;37.658;2024-02-26T03:22:34;100783.41;;;-1.24
76541;BMP280;65385;55.772;37.658;2024-02-26T03:23:34;100770.91;;;-1.27
76541;BMP280;65385;55.772;37.658;2024-02-26T03:24:37;100772.66;;;-1.28
76541;BMP280;65385;55.772;37.658;2024-02-26T03:25:38;100778.72;;;-1.29
76541;BMP280;65385;55.772;37.658;2024-02-26T03:26:39;100766.84;;;-1.30
76541;BMP280;65385;55.772;37.658;2024-02-26T03:27:39;100770.22;;;-1.29
76541;BMP280;65385;55.772;37.658;2024-02-26T03:28:40;100769.41;;;-1.30
76541;BMP280;65385;55.772;37.658;2024-02-26T03:29:41;100769.56;;;-1.31
76541;BMP280;65385;55.772;37.658;2024-02-26T03:30:42;100777.91;;;-1.29
76541;BMP280;65385;55.772;37.658;2024-02-26T03:31:42;100773.91;;;-1.32
76541;BMP280;65385;55.772;37.658;2024-02-26T03:32:43;100776.63;;;-1.33
76541;BMP280;65385;55.772;37.658;2024-02-26T03:33:43;100771.59;;;-1.35
76541;BMP280;65385;55.772;37.658;2024-02-26T03:34:44;100774.16;;;-1.35
76541;BMP280;65385;55.772;37.658;2024-02-26T03:35:44;100771.59;;;-1.35
76541;BMP280;65385;55.772;37.658;2024-02-26T03:36:45;100767.41;;;-1.36
76541;BMP280;65385;55.772;37.658;2024-02-26T03:37:46;100775.13;;;-1.36
76541;BMP280;65385;55.772;37.658;2024-02-26T03:38:48;100766.75;;;-1.38
76541;BMP280;65385;55.772;37.658;2024-02-26T03:39:49;100771.25;;;-1.40
76541;BMP280;65385;55.772;37.658;2024-02-26T03:40:49;100776.38;;;-1.40
76541;BMP280;65385;55.772;37.658;2024-02-26T03:41:50;100764.50;;;-1.41
76541;BMP280;65385;55.772;37.658;2024-02-26T03:42:50;100768.81;;;-1.41
76541;BMP280;65385;55.772;37.658;2024-02-26T03:43:53;100766.53;;;-1.44
76541;BMP280;65385;55.772;37.658;2024-02-26T03:44:53;100774.22;;;-1.44
76541;BMP280;65385;55.772;37.658;2024-02-26T03:45:54;100766.53;;;-1.44
76541;BMP280;65385;55.772;37.658;2024-02-26T03:46:54;100774.22;;;-1.44
76541;BMP280;65385;55.772;37.658;2024-02-26T03:47:56;100763.97;;;-1.44
76541;BMP280;65385;55.772;37.658;2024-02-26T03:48:56;100777.59;;;-1.44
76541;BMP280;65385;55.772;37.658;2024-02-26T03:49:57;100776.78;;;-1.44
76541;BMP280;65385;55.772;37.658;2024-02-26T03:50:59;100780.16;;;-1.44
76541;BMP280;65385;55.772;37.658;2024-02-26T03:52:00;100771.53;;;-1.43
76541;BMP280;65385;55.772;37.658;2024-02-26T03:53:01;100774.38;;;-1.46
76541;BMP280;65385;55.772;37.658;2024-02-26T03:54:01;100778.72;;;-1.46
76541;BMP280;65385;55.772;37.658;2024-02-26T03:55:03;100776.94;;;-1.46
76541;BMP280;65385;55.772;37.658;2024-02-26T03:56:05;100775.19;;;-1.45
76541;BMP280;65385;55.772;37.658;2024-02-26T03:57:05;100767.50;;;-1.45
76541;BMP280;65385;55.772;37.658;2024-02-26T03:58:06;100775.03;;;-1.44
76541;BMP280;65385;55.772;37.658;2024-02-26T03:59:07;100773.44;;;-1.45
76541;BMP280;65385;55.772;37.658;2024-02-26T04:00:07;100775.34;;;-1.47
76541;BMP280;65385;55.772;37.658;2024-02-26T04:01:13;100773.75;;;-1.48
76541;BMP280;65385;55.772;37.658;2024-02-26T04:02:13;100774.69;;;-1.49
76541;BMP280;65385;55.772;37.658;2024-02-26T04:03:14;100769.69;;;-1.50
76541;BMP280;65385;55.772;37.658;2024-02-26T04:04:15;100772.41;;;-1.52
76541;BMP280;65385;55.772;37.658;2024-02-26T04:05:15;100774.97;;;-1.52
76541;BMP280;65385;55.772;37.658;2024-02-26T04:06:16;100774.97;;;-1.52
76541;BMP280;65385;55.772;37.658;2024-02-26T04:07:20;100771.59;;;-1.52
76541;BMP280;65385;55.772;37.658;2024-02-26T04:08:20;100766.47;;;-1.52
76541;BMP280;65385;55.772;37.658;2024-02-26T04:09:21;100772.56;;;-1.53
76541;BMP280;65385;55.772;37.658;2024-02-26T04:10:21;100771.75;;;-1.54
76541;BMP280;65385;55.772;37.658;2024-02-26T04:11:22;100772.56;;;-1.53
76541;BMP280;65385;55.772;37.658;2024-02-26T04:12:23;100771.59;;;-1.52
76541;BMP280;65385;55.772;37.658;2024-02-26T04:13:23;100767.44;;;-1.53
76541;BMP280;65385;55.772;37.658;2024-02-26T04:14:24;100769.84;;;-1.52
76541;BMP280;65385;55.772;37.658;2024-02-26T04:15:25;100771.75;;;-1.54
76541;BMP280;65385;55.772;37.658;2024-02-26T04:16:26;100777.53;;;-1.52
76541;BMP280;65385;55.772;37.658;2024-02-26T04:17:26;100770.78;;;-1.53
76541;BMP280;65385;55.772;37.658;2024-02-26T04:18:27;100769.84;;;-1.52
76541;BMP280;65385;55.772;37.658;2024-02-26T04:19:28;100776.59;;;-1.51
76541;BMP280;65385;55.772;37.658;2024-02-26T04:20:29;100766.47;;;-1.52
76541;BMP280;65385;55.772;37.658;2024-02-26T04:21:30;100770.00;;;-1.53
76541;BMP280;65385;55.772;37.658;2024-02-26T04:22:30;100776.72;;;-1.52
76541;BMP280;65385;55.772;37.658;2024-02-26T04:23:31;100770.97;;;-1.55
76541;BMP280;65385;55.772;37.658;2024-02-26T04:24:32;100784.59;;;-1.54
76541;BMP280;65385;55.772;37.658;2024-02-26T04:25:33;100781.34;;;-1.56
76541;BMP280;65385;55.772;37.658;2024-02-26T04:26:34;100777.84;;;-1.55
76541;BMP280;65385;55.772;37.658;2024-02-26T04:27:35;100778.78;;;-1.56
76541;BMP280;65385;55.772;37.658;2024-02-26T04:28:35;100783.25;;;-1.58
76541;BMP280;65385;55.772;37.658;2024-02-26T04:29:36;100783.25;;;-1.58
76541;BMP280;65385;55.772;37.658;2024-02-26T04:30:37;100777.31;;;-1.59
76541;BMP280;65385;55.772;37.658;2024-02-26T04:31:38;100778.25;;;-1.60
76541;BMP280;65385;55.772;37.658;2024-02-26T04:32:39;100770.75;;;-1.61
76541;BMP280;65385;55.772;37.658;2024-02-26T04:33:40;100781.00;;;-1.61
76541;BMP280;65385;55.772;37.658;2024-02-26T04:34:42;100773.44;;;-1.63
76541;BMP280;65385;55.772;37.658;2024-02-26T04:35:43;100775.19;;;-1.63
76541;BMP280;65385;55.772;37.658;2024-02-26T04:36:44;100776.00;;;-1.63
76541;BMP280;65385;55.772;37.658;2024-02-26T04:37:45;100781.13;;;-1.63
76541;BMP280;65385;55.772;37.658;2024-02-26T04:38:45;100776.16;;;-1.64
76541;BMP280;65385;55.772;37.658;2024-02-26T04:39:46;100774.41;;;-1.64
76541;BMP280;65385;55.772;37.658;2024-02-26T04:40:47;100778.72;;;-1.64
76541;BMP280;65385;55.772;37.658;2024-02-26T04:41:47;100779.53;;;-1.64
76541;BMP280;65385;55.772;37.658;2024-02-26T04:42:48;100771.03;;;-1.64
76541;BMP280;65385;55.772;37.658;2024-02-26T04:43:48;100775.34;;;-1.65
76541;BMP280;65385;55.772;37.658;2024-02-26T04:44:49;100774.53;;;-1.65
76541;BMP280;65385;55.772;37.658;2024-02-26T04:45:50;100780.59;;;-1.66
76541;BMP280;65385;55.772;37.658;2024-02-26T04:46:50;100782.22;;;-1.65
76541;BMP280;65385;55.772;37.658;2024-02-26T04:47:51;100778.84;;;-1.66
76541;BMP280;65385;55.772;37.658;2024-02-26T04:48:51;100771.97;;;-1.65
76541;BMP280;65385;55.772;37.658;2024-02-26T04:49:52;100778.84;;;-1.66
76541;BMP280;65385;55.772;37.658;2024-02-26T04:50:53;100783.84;;;-1.64
76541;BMP280;65385;55.772;37.658;2024-02-26T04:51:53;100780.31;;;-1.63
76541;BMP280;65385;55.772;37.658;2024-02-26T04:52:54;100771.69;;;-1.62
76541;BMP280;65385;55.772;37.658;2024-02-26T04:53:55;100775.19;;;-1.63
76541;BMP280;65385;55.772;37.658;2024-02-26T04:54:55;100781.94;;;-1.62
76541;BMP280;65385;55.772;37.658;2024-02-26T04:55:56;100772.31;;;-1.60
76541;BMP280;65385;55.772;37.658;2024-02-26T04:56:57;100773.00;;;-1.58
76541;BMP280;65385;55.772;37.658;2024-02-26T04:57:57;100774.63;;;-1.57
76541;BMP280;65385;55.772;37.658;2024-02-26T04:58:58;100775.41;;;-1.57
76541;BMP280;65385;55.772;37.658;2024-02-26T04:59:58;100772.72;;;-1.55
76541;BMP280;65385;55.772;37.658;2024-02-26T05:00:59;100776.22;;;-1.56
76541;BMP280;65385;55.772;37.658;2024-02-26T05:02:00;100773.53;;;-1.55
76541;BMP280;65385;55.772;37.658;2024-02-26T05:03:00;100769.19;;;-1.54
76541;BMP280;65385;55.772;37.658;2024-02-26T05:04:01;100773.34;;;-1.53
76541;BMP280;65385;55.772;37.658;2024-02-26T05:05:02;100772.13;;;-1.49
76541;BMP280;65385;55.772;37.658;2024-02-26T05:06:04;100778.88;;;-1.48
76541;BMP280;65385;55.772;37.658;2024-02-26T05:07:05;100775.50;;;-1.48
76541;BMP280;65385;55.772;37.658;2024-02-26T05:08:06;100772.94;;;-1.48
76541;BMP280;65385;55.772;37.658;2024-02-26T05:09:07;100770.38;;;-1.48
76541;BMP280;65385;55.772;37.658;2024-02-26T05:10:09;100772.78;;;-1.47
76541;BMP280;65385;55.772;37.658;2024-02-26T05:11:09;100759.16;;;-1.47
76541;BMP280;65385;55.772;37.658;2024-02-26T05:12:10;100770.38;;;-1.48
76541;BMP280;65385;55.772;37.658;2024-02-26T05:13:11;100763.47;;;-1.48
76541;BMP280;65385;55.772;37.658;2024-02-26T05:14:11;100770.22;;;-1.47
76541;BMP280;65385;55.772;37.658;2024-02-26T05:15:12;100765.09;;;-1.47
76541;BMP280;65385;55.772;37.658;2024-02-26T05:16:18;100768.31;;;-1.45
76541;BMP280;65385;55.772;37.658;2024-02-26T05:17:21;100765.59;;;-1.43
76541;BMP280;65385;55.772;37.658;2024-02-26T05:18:22;100769.09;;;-1.44
76541;BMP280;65385;55.772;37.658;2024-02-26T05:19:23;100773.16;;;-1.42
76541;BMP280;65385;55.772;37.658;2024-02-26T05:20:23;100772.34;;;-1.42
76541;BMP280;65385;55.772;37.658;2024-02-26T05:21:24;100768.03;;;-1.42
76541;BMP280;65385;55.772;37.658;2024-02-26T05:22:24;100771.25;;;-1.40
76541;BMP280;65385;55.772;37.658;2024-02-26T05:23:26;100769.31;;;-1.38
76541;BMP280;65385;55.772;37.658;2024-02-26T05:24:26;100764.19;;;-1.38
76541;BMP280;65385;55.772;37.658;2024-02-26T05:25:27;100778.34;;;-1.34
76541;BMP280;65385;55.772;37.658;2024-02-26T05:26:28;100779.03;;;-1.32
76541;BMP280;65385;55.772;37.658;2024-02-26T05:27:28;100773.59;;;-1.29
76541;BMP280;65385;55.772;37.658;2024-02-26T05:28:29;100781.97;;;-1.27
76541;BMP280;65385;55.772;37.658;2024-02-26T05:29:29;100772.50;;;-1.26
76541;BMP280;65385;55.772;37.658;2024-02-26T05:30:30;100785.19;;;-1.25
76541;BMP280;65385;55.772;37.658;2024-02-26T05:31:30;100769.81;;;-1.25
76541;BMP280;65385;55.772;37.658;2024-02-26T05:32:31;100769.00;;;-1.25
76541;BMP280;65385;55.772;37.658;2024-02-26T05:33:32;100773.31;;;-1.26
76541;BMP280;65385;55.772;37.658;2024-02-26T05:34:32;100770.56;;;-1.24
76541;BMP280;65385;55.772;37.658;2024-02-26T05:35:33;100779.88;;;-1.23
76541;BMP280;65385;55.772;37.658;2024-02-26T05:36:34;100777.50;;;-1.25
76541;BMP280;65385;55.772;37.658;2024-02-26T05:37:35;100768.00;;;-1.24
76541;BMP280;65385;55.772;37.658;2024-02-26T05:38:35;100769.81;;;-1.25
76541;BMP280;65385;55.772;37.658;2024-02-26T05:39:36;100767.06;;;-1.23
76541;BMP280;65385;55.772;37.658;2024-02-26T05:40:37;100767.72;;;-1.21